sensor_id;sensor_type;location;lat;lon;timestamp;pressure;altitude;pressure_sealevel;temperature;humidity
15066;BME280;7632;64.944;20.038;2023-12-20T00:00:27;95793.84;;;0.06;100.00
15066;BME280;7632;64.944;20.038;2023-12-20T00:02:54;95797.41;;;-0.01;100.00
15066;BME280;7632;64.944;20.038;2023-12-20T00:05:21;95808.38;;;-0.02;100.00
15066;BME280;7632;64.944;20.038;2023-12-20T00:07:48;95795.84;;;-0.05;100.00
15066;BME280;7632;64.944;20.038;2023-12-20T00:10:14;95807.31;;;0.05;100.00
15066;BME280;7632;64.944;20.038;2023-12-20T00:12:41;95815.22;;;-0.07;100.00
15066;BME280;7632;64.944;20.038;2023-12-20T00:15:08;95819.66;;;-0.15;100.00
15066;BME280;7632;64.944;20.038;2023-12-20T00:17:36;95824.63;;;-0.12;100.00
15066;BME280;7632;64.944;20.038;2023-12-20T00:20:04;95826.34;;;-0.14;100.00
15066;BME280;7632;64.944;20.038;2023-12-20T00:22:31;95832.34;;;-0.18;100.00
15066;BME280;7632;64.944;20.038;2023-12-20T00:24:58;95839.22;;;-0.25;100.00
15066;BME280;7632;64.944;20.038;2023-12-20T00:27:25;95849.28;;;-0.23;100.00
15066;BME280;7632;64.944;20.038;2023-12-20T00:29:52;95850.38;;;-0.33;100.00
15066;BME280;7632;64.944;20.038;2023-12-20T00:32:18;95850.53;;;-0.39;100.00
15066;BME280;7632;64.944;20.038;2023-12-20T00:34:47;95852.84;;;-0.32;100.00
15066;BME280;7632;64.944;20.038;2023-12-20T00:37:13;95863.91;;;-0.37;100.00
15066;BME280;7632;64.944;20.038;2023-12-20T00:39:40;95864.84;;;-0.41;100.00
15066;BME280;7632;64.944;20.038;2023-12-20T00:42:07;95871.91;;;-0.55;100.00
15066;BME280;7632;64.944;20.038;2023-12-20T00:44:34;95869.50;;;-0.60;100.00
15066;BME280;7632;64.944;20.038;2023-12-20T00:47:01;95873.00;;;-0.65;100.00
15066;BME280;7632;64.944;20.038;2023-12-20T00:49:28;95883.22;;;-0.71;100.00
15066;BME280;7632;64.944;20.038;2023-12-20T00:51:56;95880.00;;;-0.76;100.00
15066;BME280;7632;64.944;20.038;2023-12-20T00:54:23;95891.19;;;-0.88;100.00
15066;BME280;7632;64.944;20.038;2023-12-20T00:56:50;95897.53;;;-0.72;100.00
15066;BME280;7632;64.944;20.038;2023-12-20T00:59:17;95911.94;;;-0.78;100.00
15066;BME280;7632;64.944;20.038;2023-12-20T01:01:44;95916.25;;;-0.83;100.00
15066;BME280;7632;64.944;20.038;2023-12-20T01:04:11;95918.22;;;-0.96;100.00
15066;BME280;7632;64.944;20.038;2023-12-20T01:06:37;95919.13;;;-0.99;100.00
15066;BME280;7632;64.944;20.038;2023-12-20T01:09:06;95920.72;;;-0.95;100.00
15066;BME280;7632;64.944;20.038;2023-12-20T01:11:32;95929.88;;;-0.92;100.00
15066;BME280;7632;64.944;20.038;2023-12-20T01:13:59;95929.06;;;-0.93;100.00
15066;BME280;7632;64.944;20.038;2023-12-20T01:16:26;95934.84;;;-0.89;100.00
15066;BME280;7632;64.944;20.038;2023-12-20T01:18:53;95944.03;;;-0.87;100.00
15066;BME280;7632;64.944;20.038;2023-12-20T01:21:20;95939.38;;;-1.05;100.00
15066;BME280;7632;64.944;20.038;2023-12-20T01:23:46;95940.09;;;-1.00;100.00
15066;BME280;7632;64.944;20.038;2023-12-20T01:26:16;95948.53;;;-1.01;100.00
15066;BME280;7632;64.944;20.038;2023-12-20T01:28:42;95959.53;;;-1.05;100.00
15066;BME280;7632;64.944;20.038;2023-12-20T01:31:09;95954.47;;;-1.03;100.00
15066;BME280;7632;64.944;20.038;2023-12-20T01:33:36;95957.94;;;-1.09;100.00
15066;BME280;7632;64.944;20.038;2023-12-20T01:36:03;95964.50;;;-1.02;100.00
15066;BME280;7632;64.944;20.038;2023-12-20T01:38:30;95966.22;;;-1.04;100.00
15066;BME280;7632;64.944;20.038;2023-12-20T01:40:57;95971.38;;;-1.10;100.00
15066;BME280;7632;64.944;20.038;2023-12-20T01:43:26;95973.09;;;-1.12;100.00
15066;BME280;7632;64.944;20.038;2023-12-20T01:45:52;95962.13;;;-1.09;100.00
15066;BME280;7632;64.944;20.038;2023-12-20T01:48:21;95978.91;;;-1.08;100.00
15066;BME280;7632;64.944;20.038;2023-12-20T01:50:49;95969.66;;;-1.08;100.00
15066;BME280;7632;64.944;20.038;2023-12-20T01:53:16;95982.16;;;-1.03;100.00
15066;BME280;7632;64.944;20.038;2023-12-20T01:55:43;95987.19;;;-1.03;100.00
15066;BME280;7632;64.944;20.038;2023-12-20T01:58:11;95972.16;;;-1.06;100.00
15066;BME280;7632;64.944;20.038;2023-12-20T02:00:40;95985.56;;;-1.06;100.00
15066;BME280;7632;64.944;20.038;2023-12-20T02:03:07;95986.44;;;-1.07;100.00
15066;BME280;7632;64.944;20.038;2023-12-20T02:05:35;95998.16;;;-1.06;100.00
15066;BME280;7632;64.944;20.038;2023-12-20T02:08:03;96001.47;;;-1.04;100.00
15066;BME280;7632;64.944;20.038;2023-12-20T02:10:31;96004.03;;;-1.05;100.00
15066;BME280;7632;64.944;20.038;2023-12-20T02:12:58;96009.25;;;-1.16;100.00
15066;BME280;7632;64.944;20.038;2023-12-20T02:15:25;96008.34;;;-1.12;100.00
15066;BME280;7632;64.944;20.038;2023-12-20T02:17:53;96011.72;;;-1.13;100.00
15066;BME280;7632;64.944;20.038;2023-12-20T02:20:21;96016.81;;;-1.16;100.00
15066;BME280;7632;64.944;20.038;2023-12-20T02:22:49;96013.47;;;-1.16;100.00
15066;BME280;7632;64.944;20.038;2023-12-20T02:25:16;96018.41;;;-1.12;100.00
15066;BME280;7632;64.944;20.038;2023-12-20T02:27:42;96023.59;;;-1.19;100.00
15066;BME280;7632;64.944;20.038;2023-12-20T02:30:11;96024.38;;;-1.16;100.00
15066;BME280;7632;64.944;20.038;2023-12-20T02:32:38;96034.69;;;-1.29;100.00
15066;BME280;7632;64.944;20.038;2023-12-20T02:35:05;96028.66;;;-1.21;100.00
15066;BME280;7632;64.944;20.038;2023-12-20T02:37:32;96038.00;;;-1.27;100.00
15066;BME280;7632;64.944;20.038;2023-12-20T02:40:01;96032.09;;;-1.25;100.00
15066;BME280;7632;64.944;20.038;2023-12-20T02:42:28;96030.69;;;-1.38;100.00
15066;BME280;7632;64.944;20.038;2023-12-20T02:44:55;96045.78;;;-1.38;100.00
15066;BME280;7632;64.944;20.038;2023-12-20T02:47:22;96049.09;;;-1.36;100.00
15066;BME280;7632;64.944;20.038;2023-12-20T02:49:49;96061.00;;;-1.44;100.00
15066;BME280;7632;64.944;20.038;2023-12-20T02:52:16;96065.13;;;-1.40;100.00
15066;BME280;7632;64.944;20.038;2023-12-20T02:54:43;96054.34;;;-1.49;100.00
15066;BME280;7632;64.944;20.038;2023-12-20T06:19:20;96369.22;;;-4.17;100.00
15066;BME280;7632;64.944;20.038;2023-12-20T06:21:47;96365.03;;;-4.24;100.00
15066;BME280;7632;64.944;20.038;2023-12-20T06:24:14;96357.53;;;-4.35;100.00
15066;BME280;7632;64.944;20.038;2023-12-20T06:26:41;96375.06;;;-4.27;100.00
15066;BME280;7632;64.944;20.038;2023-12-20T06:29:08;96368.41;;;-4.44;100.00
15066;BME280;7632;64.944;20.038;2023-12-20T06:31:35;96374.25;;;-4.51;100.00
15066;BME280;7632;64.944;20.038;2023-12-20T06:34:02;96373.44;;;-4.60;100.00
15066;BME280;7632;64.944;20.038;2023-12-20T06:36:30;96379.28;;;-4.60;100.00
15066;BME280;7632;64.944;20.038;2023-12-20T06:38:57;96385.09;;;-4.61;100.00
15066;BME280;7632;64.944;20.038;2023-12-20T06:41:24;96393.44;;;-4.65;100.00
15066;BME280;7632;64.944;20.038;2023-12-20T06:43:51;96392.63;;;-4.71;100.00
15066;BME280;7632;64.944;20.038;2023-12-20T06:46:18;96396.78;;;-4.75;100.00
15066;BME280;7632;64.944;20.038;2023-12-20T06:48:45;96390.13;;;-4.70;100.00
15066;BME280;7632;64.944;20.038;2023-12-20T06:51:13;96401.81;;;-4.79;100.00
15066;BME280;7632;64.944;20.038;2023-12-20T06:53:42;96403.47;;;-4.80;100.00
15066;BME280;7632;64.944;20.038;2023-12-20T06:56:10;96408.47;;;-4.71;100.00
15066;BME280;7632;64.944;20.038;2023-12-20T06:58:38;96403.47;;;-4.62;100.00
15066;BME280;7632;64.944;20.038;2023-12-20T07:01:04;96410.97;;;-4.74;100.00
15066;BME280;7632;64.944;20.038;2023-12-20T07:03:31;96421.78;;;-4.96;100.00
15066;BME280;7632;64.944;20.038;2023-12-20T07:05:58;96426.78;;;-4.99;100.00
15066;BME280;7632;64.944;20.038;2023-12-20T07:08:25;96416.78;;;-5.08;100.00
15066;BME280;7632;64.944;20.038;2023-12-20T07:10:53;96421.75;;;-5.14;100.00
15066;BME280;7632;64.944;20.038;2023-12-20T07:13:20;96435.09;;;-5.03;100.00
15066;BME280;7632;64.944;20.038;2023-12-20T07:15:47;96436.78;;;-5.08;100.00
15066;BME280;7632;64.944;20.038;2023-12-20T07:18:14;96435.91;;;-5.14;100.00
15066;BME280;7632;64.944;20.038;2023-12-20T07:20:42;96447.59;;;-5.19;100.00
15066;BME280;7632;64.944;20.038;2023-12-20T07:23:09;96448.41;;;-5.22;100.00
15066;BME280;7632;64.944;20.038;2023-12-20T07:25:36;96457.59;;;-5.19;100.00
15066;BME280;7632;64.944;20.038;2023-12-20T07:28:05;96458.41;;;-5.22;100.00
15066;BME280;7632;64.944;20.038;2023-12-20T07:30:32;96464.16;;;-5.43;100.00
15066;BME280;7632;64.944;20.038;2023-12-20T07:32:59;96460.88;;;-5.37;100.00
15066;BME280;7632;64.944;20.038;2023-12-20T07:35:26;96457.47;;;-5.47;100.00
15066;BME280;7632;64.944;20.038;2023-12-20T07:37:53;96476.63;;;-5.50;100.00
15066;BME280;7632;64.944;20.038;2023-12-20T07:40:20;96479.94;;;-5.57;100.00
15066;BME280;7632;64.944;20.038;2023-12-20T07:42:46;96466.56;;;-5.71;100.00
15066;BME280;7632;64.944;20.038;2023-12-20T07:45:15;96477.34;;;-5.75;100.00
15066;BME280;7632;64.944;20.038;2023-12-20T07:47:42;96484.00;;;-5.77;100.00
15066;BME280;7632;64.944;20.038;2023-12-20T07:50:09;96484.81;;;-5.83;100.00
15066;BME280;7632;64.944;20.038;2023-12-20T07:52:36;96478.84;;;-6.07;100.00
15066;BME280;7632;64.944;20.038;2023-12-20T07:55:02;96502.97;;;-6.06;100.00
15066;BME280;7632;64.944;20.038;2023-12-20T07:57:29;96502.09;;;-6.16;100.00
15066;BME280;7632;64.944;20.038;2023-12-20T07:59:56;96504.59;;;-6.18;100.00
15066;BME280;7632;64.944;20.038;2023-12-20T08:02:24;96492.06;;;-6.25;100.00
15066;BME280;7632;64.944;20.038;2023-12-20T08:04:51;96510.38;;;-6.23;100.00
15066;BME280;7632;64.944;20.038;2023-12-20T08:07:18;96505.34;;;-6.26;100.00
15066;BME280;7632;64.944;20.038;2023-12-20T08:09:45;96492.84;;;-6.28;100.00
15066;BME280;7632;64.944;20.038;2023-12-20T08:12:12;96509.47;;;-6.30;100.00
15066;BME280;7632;64.944;20.038;2023-12-20T08:14:38;96514.31;;;-6.46;100.00
15066;BME280;7632;64.944;20.038;2023-12-20T08:17:05;96514.31;;;-6.48;100.00
15066;BME280;7632;64.944;20.038;2023-12-20T08:19:33;96531.72;;;-6.52;100.00
15066;BME280;7632;64.944;20.038;2023-12-20T08:22:00;96527.53;;;-6.58;100.00
15066;BME280;7632;64.944;20.038;2023-12-20T08:24:27;96537.44;;;-6.67;100.00
15066;BME280;7632;64.944;20.038;2023-12-20T08:26:54;96531.63;;;-6.64;100.00
15066;BME280;7632;64.944;20.038;2023-12-20T08:29:21;96534.81;;;-6.77;100.00
15066;BME280;7632;64.944;20.038;2023-12-20T08:31:52;96534.75;;;-6.83;100.00
15066;BME280;7632;64.944;20.038;2023-12-20T08:34:19;96541.31;;;-6.93;100.00
15066;BME280;7632;64.944;20.038;2023-12-20T08:36:47;96549.53;;;-6.99;100.00
15066;BME280;7632;64.944;20.038;2023-12-20T08:39:14;96550.22;;;-7.13;100.00
15066;BME280;7632;64.944;20.038;2023-12-20T08:41:41;96551.00;;;-7.19;100.00
15066;BME280;7632;64.944;20.038;2023-12-20T08:44:08;96552.56;;;-7.27;100.00
15066;BME280;7632;64.944;20.038;2023-12-20T08:46:35;96558.28;;;-7.32;100.00
15066;BME280;7632;64.944;20.038;2023-12-20T08:49:02;96559.13;;;-7.32;100.00
15066;BME280;7632;64.944;20.038;2023-12-20T08:51:28;96555.00;;;-7.31;100.00
15066;BME280;7632;64.944;20.038;2023-12-20T08:53:57;96562.31;;;-7.42;100.00
15066;BME280;7632;64.944;20.038;2023-12-20T08:56:23;96557.41;;;-7.37;100.00
15066;BME280;7632;64.944;20.038;2023-12-20T08:58:50;96554.94;;;-7.34;100.00
15066;BME280;7632;64.944;20.038;2023-12-20T09:01:17;96555.72;;;-7.38;100.00
15066;BME280;7632;64.944;20.038;2023-12-20T09:03:44;96552.91;;;-7.62;100.00
15066;BME280;7632;64.944;20.038;2023-12-20T09:06:11;96561.13;;;-7.69;100.00
15066;BME280;7632;64.944;20.038;2023-12-20T09:08:37;96572.63;;;-7.77;100.00
15066;BME280;7632;64.944;20.038;2023-12-20T09:11:06;96577.59;;;-7.77;100.00
15066;BME280;7632;64.944;20.038;2023-12-20T09:13:33;96576.72;;;-7.81;100.00
15066;BME280;7632;64.944;20.038;2023-12-20T09:16:00;96586.66;;;-7.82;100.00
15066;BME280;7632;64.944;20.038;2023-12-20T09:18:26;96594.16;;;-7.79;100.00
15066;BME280;7632;64.944;20.038;2023-12-20T09:20:54;96577.38;;;-7.93;100.00
15066;BME280;7632;64.944;20.038;2023-12-20T09:23:21;96589.94;;;-7.85;100.00
15066;BME280;7632;64.944;20.038;2023-12-20T09:25:47;96599.59;;;-8.05;100.00
15066;BME280;7632;64.944;20.038;2023-12-20T09:28:16;96604.59;;;-8.02;100.00
15066;BME280;7632;64.944;20.038;2023-12-20T09:30:42;96602.00;;;-8.11;100.00
15066;BME280;7632;64.944;20.038;2023-12-20T09:33:11;96602.59;;;-8.24;100.00
15066;BME280;7632;64.944;20.038;2023-12-20T09:35:38;96605.16;;;-8.18;100.00
15066;BME280;7632;64.944;20.038;2023-12-20T09:38:05;96606.13;;;-8.11;100.00
15066;BME280;7632;64.944;20.038;2023-12-20T09:40:32;96609.19;;;-8.27;100.00
15066;BME280;7632;64.944;20.038;2023-12-20T09:43:03;96608.09;;;-8.43;100.00
15066;BME280;7632;64.944;20.038;2023-12-20T09:45:32;96616.94;;;-8.58;100.00
15066;BME280;7632;64.944;20.038;2023-12-20T09:48:00;96626.50;;;-8.78;100.00
15066;BME280;7632;64.944;20.038;2023-12-20T09:50:30;96633.91;;;-8.81;100.00
15066;BME280;7632;64.944;20.038;2023-12-20T09:52:58;96623.88;;;-8.84;100.00
15066;BME280;7632;64.944;20.038;2023-12-20T09:55:26;96620.59;;;-8.83;100.00
15066;BME280;7632;64.944;20.038;2023-12-20T09:57:54;96627.34;;;-8.76;100.00
15066;BME280;7632;64.944;20.038;2023-12-20T10:00:21;96633.94;;;-8.78;100.00
15066;BME280;7632;64.944;20.038;2023-12-20T10:02:55;96638.16;;;-8.74;100.00
15066;BME280;7632;64.944;20.038;2023-12-20T10:05:28;96642.97;;;-8.85;100.00
15066;BME280;7632;64.944;20.038;2023-12-20T10:07:55;96638.75;;;-8.87;100.00
15066;BME280;7632;64.944;20.038;2023-12-20T10:10:22;96631.31;;;-8.87;100.00
15066;BME280;7632;64.944;20.038;2023-12-20T10:13:02;96634.38;;;-8.99;100.00
15066;BME280;7632;64.944;20.038;2023-12-20T10:15:29;96625.56;;;-9.25;100.00
15066;BME280;7632;64.944;20.038;2023-12-20T10:17:57;96635.81;;;-9.48;100.00
15066;BME280;7632;64.944;20.038;2023-12-20T10:20:24;96641.38;;;-9.58;100.00
15066;BME280;7632;64.944;20.038;2023-12-20T10:22:52;96640.00;;;-9.82;100.00
15066;BME280;7632;64.944;20.038;2023-12-20T10:25:20;96646.50;;;-9.87;100.00
15066;BME280;7632;64.944;20.038;2023-12-20T15:20:30;96811.88;;;-16.33;100.00
15066;BME280;7632;64.944;20.038;2023-12-20T15:22:59;96820.78;;;-16.35;100.00
15066;BME280;7632;64.944;20.038;2023-12-20T15:25:32;96812.88;;;-16.45;100.00
15066;BME280;7632;64.944;20.038;2023-12-20T15:27:59;96816.72;;;-16.50;100.00
15066;BME280;7632;64.944;20.038;2023-12-20T15:30:28;96820.88;;;-16.65;100.00
15066;BME280;7632;64.944;20.038;2023-12-20T15:32:55;96820.09;;;-16.64;100.00
15066;BME280;7632;64.944;20.038;2023-12-20T15:35:22;96820.09;;;-16.64;100.00
15066;BME280;7632;64.944;20.038;2023-12-20T15:37:50;96823.66;;;-16.59;100.00
15066;BME280;7632;64.944;20.038;2023-12-20T15:40:17;96828.38;;;-16.62;100.00
15066;BME280;7632;64.944;20.038;2023-12-20T15:42:44;96825.47;;;-16.71;100.00
15066;BME280;7632;64.944;20.038;2023-12-20T15:45:11;96830.97;;;-16.75;100.00
15066;BME280;7632;64.944;20.038;2023-12-20T15:47:39;96829.09;;;-16.65;100.00
15066;BME280;7632;64.944;20.038;2023-12-20T15:50:07;96836.34;;;-16.66;100.00
15066;BME280;7632;64.944;20.038;2023-12-20T15:52:34;96830.22;;;-16.74;100.00
15066;BME280;7632;64.944;20.038;2023-12-20T15:55:04;96830.03;;;-16.94;100.00
15066;BME280;7632;64.944;20.038;2023-12-20T15:57:30;96851.34;;;-16.93;100.00
15066;BME280;7632;64.944;20.038;2023-12-20T15:59:59;96839.63;;;-16.82;100.00
15066;BME280;7632;64.944;20.038;2023-12-20T16:02:26;96822.25;;;-16.87;100.00
15066;BME280;7632;64.944;20.038;2023-12-20T16:04:53;96826.66;;;-16.96;100.00
15066;BME280;7632;64.944;20.038;2023-12-20T16:07:19;96847.66;;;-17.01;100.00
15066;BME280;7632;64.944;20.038;2023-12-20T16:09:46;96840.72;;;-17.08;100.00
15066;BME280;7632;64.944;20.038;2023-12-20T16:12:14;96857.63;;;-17.12;100.00
15066;BME280;7632;64.944;20.038;2023-12-20T16:14:41;96853.84;;;-17.22;100.00
15066;BME280;7632;64.944;20.038;2023-12-20T16:17:08;96857.69;;;-17.27;100.00
15066;BME280;7632;64.944;20.038;2023-12-20T16:19:35;96876.84;;;-17.50;100.00
15066;BME280;7632;64.944;20.038;2023-12-20T16:22:02;96879.88;;;-17.54;100.00
15066;BME280;7632;64.944;20.038;2023-12-20T16:24:29;96874.28;;;-17.52;100.00
15066;BME280;7632;64.944;20.038;2023-12-20T16:26:56;96880.03;;;-17.51;100.00
15066;BME280;7632;64.944;20.038;2023-12-20T16:29:25;96879.75;;;-17.56;100.00
15066;BME280;7632;64.944;20.038;2023-12-20T16:31:51;96870.22;;;-17.51;100.00
15066;BME280;7632;64.944;20.038;2023-12-20T16:34:18;96871.91;;;-17.65;100.00
15066;BME280;7632;64.944;20.038;2023-12-20T16:36:50;96876.81;;;-17.80;100.00
15066;BME280;7632;64.944;20.038;2023-12-20T16:39:18;96879.53;;;-17.75;100.00
15066;BME280;7632;64.944;20.038;2023-12-20T16:41:46;96864.63;;;-17.78;100.00
15066;BME280;7632;64.944;20.038;2023-12-20T16:44:13;96873.75;;;-17.90;100.00
15066;BME280;7632;64.944;20.038;2023-12-20T16:46:41;96874.59;;;-17.90;100.00
15066;BME280;7632;64.944;20.038;2023-12-20T16:49:08;96866.06;;;-17.96;100.00
15066;BME280;7632;64.944;20.038;2023-12-20T16:51:35;96869.19;;;-17.99;100.00
15066;BME280;7632;64.944;20.038;2023-12-20T16:54:02;96871.69;;;-18.12;100.00
15066;BME280;7632;64.944;20.038;2023-12-20T16:56:29;96876.72;;;-18.23;100.00
15066;BME280;7632;64.944;20.038;2023-12-20T16:58:55;96882.34;;;-18.11;100.00
15066;BME280;7632;64.944;20.038;2023-12-20T17:01:23;96869.34;;;-18.10;100.00
15066;BME280;7632;64.944;20.038;2023-12-20T17:03:52;96866.97;;;-17.94;100.00
15066;BME280;7632;64.944;20.038;2023-12-20T17:06:19;96875.09;;;-17.95;100.00
15066;BME280;7632;64.944;20.038;2023-12-20T17:08:48;96871.03;;;-18.09;100.00
15066;BME280;7632;64.944;20.038;2023-12-20T17:11:16;96883.84;;;-18.13;100.00
15066;BME280;7632;64.944;20.038;2023-12-20T17:13:44;96886.94;;;-18.16;100.00
15066;BME280;7632;64.944;20.038;2023-12-20T17:16:10;96885.94;;;-18.19;100.00
15066;BME280;7632;64.944;20.038;2023-12-20T17:18:37;96876.69;;;-18.10;100.00
15066;BME280;7632;64.944;20.038;2023-12-20T17:21:06;96875.06;;;-18.24;100.00
15066;BME280;7632;64.944;20.038;2023-12-20T17:23:34;96862.63;;;-18.27;100.00
15066;BME280;7632;64.944;20.038;2023-12-20T17:26:00;96872.31;;;-18.43;100.00
15066;BME280;7632;64.944;20.038;2023-12-20T17:28:27;96864.81;;;-18.46;100.00
15066;BME280;7632;64.944;20.038;2023-12-20T17:30:54;96874.25;;;-18.66;100.00
15066;BME280;7632;64.944;20.038;2023-12-20T17:33:21;96873.88;;;-19.12;100.00
15066;BME280;7632;64.944;20.038;2023-12-20T17:35:48;96886.66;;;-19.16;100.00
15066;BME280;7632;64.944;20.038;2023-12-20T17:38:16;96876.78;;;-19.05;100.00
15066;BME280;7632;64.944;20.038;2023-12-20T17:40:43;96887.75;;;-18.85;100.00
15066;BME280;7632;64.944;20.038;2023-12-20T17:43:10;96889.34;;;-18.86;100.00
15066;BME280;7632;64.944;20.038;2023-12-20T17:45:38;96886.72;;;-18.89;100.00
15066;BME280;7632;64.944;20.038;2023-12-20T17:48:05;96905.22;;;-18.79;100.00
15066;BME280;7632;64.944;20.038;2023-12-20T17:50:32;96893.84;;;-18.92;100.00
15066;BME280;7632;64.944;20.038;2023-12-20T17:52:59;96887.06;;;-18.70;100.00
15066;BME280;7632;64.944;20.038;2023-12-20T17:55:28;96879.22;;;-18.51;100.00
15066;BME280;7632;64.944;20.038;2023-12-20T17:57:55;96880.19;;;-18.34;100.00
15066;BME280;7632;64.944;20.038;2023-12-20T18:00:26;96876.03;;;-18.35;100.00
15066;BME280;7632;64.944;20.038;2023-12-20T18:02:54;96882.22;;;-18.55;100.00
15066;BME280;7632;64.944;20.038;2023-12-20T18:05:21;96889.56;;;-19.09;100.00
15066;BME280;7632;64.944;20.038;2023-12-20T18:07:49;96877.16;;;-19.25;100.00
15066;BME280;7632;64.944;20.038;2023-12-20T18:10:18;96883.59;;;-19.40;100.00
15066;BME280;7632;64.944;20.038;2023-12-20T18:12:46;96887.50;;;-19.29;100.00
15066;BME280;7632;64.944;20.038;2023-12-20T18:15:14;96885.78;;;-19.30;100.00
15066;BME280;7632;64.944;20.038;2023-12-20T18:17:41;96892.19;;;-19.19;100.00
15066;BME280;7632;64.944;20.038;2023-12-20T21:19:30;96908.50;;;-21.97;98.70
15066;BME280;7632;64.944;20.038;2023-12-20T21:21:57;96900.16;;;-21.89;98.84
15066;BME280;7632;64.944;20.038;2023-12-20T21:24:24;96902.06;;;-21.74;99.14
15066;BME280;7632;64.944;20.038;2023-12-20T21:26:50;96887.91;;;-21.56;99.48
15066;BME280;7632;64.944;20.038;2023-12-20T21:29:17;96878.50;;;-21.52;98.76
15066;BME280;7632;64.944;20.038;2023-12-20T21:31:44;96879.44;;;-21.84;97.81
15066;BME280;7632;64.944;20.038;2023-12-20T21:34:11;96883.44;;;-21.96;98.28
15066;BME280;7632;64.944;20.038;2023-12-20T21:36:39;96870.44;;;-21.85;98.52
15066;BME280;7632;64.944;20.038;2023-12-20T21:39:08;96863.75;;;-21.76;98.68
15066;BME280;7632;64.944;20.038;2023-12-20T21:41:35;96865.25;;;-21.55;98.52
15066;BME280;7632;64.944;20.038;2023-12-20T21:44:01;96868.22;;;-22.05;97.47
15066;BME280;7632;64.944;20.038;2023-12-20T21:46:28;96862.50;;;-21.94;97.86
15066;BME280;7632;64.944;20.038;2023-12-20T21:48:55;96861.34;;;-21.99;97.63
15066;BME280;7632;64.944;20.038;2023-12-20T21:51:22;96844.25;;;-22.23;97.78
15066;BME280;7632;64.944;20.038;2023-12-20T21:53:52;96855.28;;;-22.04;97.62
15066;BME280;7632;64.944;20.038;2023-12-20T21:56:24;96859.75;;;-21.87;97.69
15066;BME280;7632;64.944;20.038;2023-12-20T21:58:51;96858.69;;;-21.91;97.76
15066;BME280;7632;64.944;20.038;2023-12-20T22:01:18;96854.47;;;-21.93;97.29
15066;BME280;7632;64.944;20.038;2023-12-20T22:03:45;96844.09;;;-21.91;98.09
15066;BME280;7632;64.944;20.038;2023-12-20T22:06:12;96836.94;;;-21.89;97.28
15066;BME280;7632;64.944;20.038;2023-12-20T22:08:38;96848.13;;;-21.91;97.79
15066;BME280;7632;64.944;20.038;2023-12-20T22:11:07;96854.69;;;-21.90;97.56
15066;BME280;7632;64.944;20.038;2023-12-20T22:13:33;96827.59;;;-22.06;97.17
15066;BME280;7632;64.944;20.038;2023-12-20T22:16:00;96847.81;;;-21.96;96.94
15066;BME280;7632;64.944;20.038;2023-12-20T22:18:27;96864.22;;;-21.93;97.72
15066;BME280;7632;64.944;20.038;2023-12-20T22:20:54;96849.63;;;-21.82;97.47
15066;BME280;7632;64.944;20.038;2023-12-20T22:23:21;96849.38;;;-21.73;97.44
15066;BME280;7632;64.944;20.038;2023-12-20T22:25:48;96839.84;;;-21.70;97.42
15066;BME280;7632;64.944;20.038;2023-12-20T22:28:16;96845.88;;;-21.65;97.34
15066;BME280;7632;64.944;20.038;2023-12-20T22:30:44;96842.19;;;-21.83;96.73
15066;BME280;7632;64.944;20.038;2023-12-20T22:33:11;96846.84;;;-21.86;97.11
15066;BME280;7632;64.944;20.038;2023-12-20T22:35:37;96815.28;;;-21.73;97.25
15066;BME280;7632;64.944;20.038;2023-12-20T22:38:04;96824.06;;;-21.75;97.12
15066;BME280;7632;64.944;20.038;2023-12-20T22:40:31;96822.50;;;-21.75;97.04
15066;BME280;7632;64.944;20.038;2023-12-20T22:42:58;96810.44;;;-21.73;97.07
15066;BME280;7632;64.944;20.038;2023-12-20T22:45:26;96795.00;;;-21.74;96.79
15066;BME280;7632;64.944;20.038;2023-12-20T22:47:52;96801.53;;;-21.61;96.57
15066;BME280;7632;64.944;20.038;2023-12-20T22:50:19;96795.63;;;-21.76;96.63
15066;BME280;7632;64.944;20.038;2023-12-20T22:52:49;96803.28;;;-21.83;96.69
15066;BME280;7632;64.944;20.038;2023-12-20T22:55:16;96788.91;;;-21.80;96.70
15066;BME280;7632;64.944;20.038;2023-12-20T22:57:42;96802.41;;;-21.72;96.82
15066;BME280;7632;64.944;20.038;2023-12-20T23:00:10;96781.88;;;-21.64;97.37
15066;BME280;7632;64.944;20.038;2023-12-20T23:02:43;96771.66;;;-21.83;96.84
15066;BME280;7632;64.944;20.038;2023-12-20T23:05:10;96778.75;;;-21.86;97.05
15066;BME280;7632;64.944;20.038;2023-12-20T23:07:37;96785.72;;;-22.02;96.92
15066;BME280;7632;64.944;20.038;2023-12-20T23:10:04;96779.81;;;-21.94;97.05
15066;BME280;7632;64.944;20.038;2023-12-20T23:12:31;96777.28;;;-21.96;96.82
15066;BME280;7632;64.944;20.038;2023-12-20T23:14:58;96774.75;;;-21.86;96.96
15066;BME280;7632;64.944;20.038;2023-12-20T23:17:25;96776.19;;;-21.76;97.35
15066;BME280;7632;64.944;20.038;2023-12-20T23:19:53;96775.09;;;-21.57;97.24
15066;BME280;7632;64.944;20.038;2023-12-20T23:22:20;96755.88;;;-21.77;97.13
15066;BME280;7632;64.944;20.038;2023-12-20T23:24:48;96769.84;;;-21.74;97.05
15066;BME280;7632;64.944;20.038;2023-12-20T23:27:15;96776.78;;;-21.67;97.01
15066;BME280;7632;64.944;20.038;2023-12-20T23:29:42;96770.88;;;-21.71;97.48
15066;BME280;7632;64.944;20.038;2023-12-20T23:32:09;96769.78;;;-21.51;97.60
15066;BME280;7632;64.944;20.038;2023-12-20T23:34:36;96757.56;;;-21.64;97.54
15066;BME280;7632;64.944;20.038;2023-12-20T23:37:04;96763.03;;;-21.67;97.35
15066;BME280;7632;64.944;20.038;2023-12-20T23:39:31;96769.38;;;-21.57;97.28
15066;BME280;7632;64.944;20.038;2023-12-20T23:41:58;96774.00;;;-21.37;97.17
15066;BME280;7632;64.944;20.038;2023-12-20T23:44:25;96775.28;;;-21.42;96.24
15066;BME280;7632;64.944;20.038;2023-12-20T23:46:52;96774.03;;;-21.49;96.55
15066;BME280;7632;64.944;20.038;2023-12-20T23:49:18;96766.59;;;-21.39;96.54
15066;BME280;7632;64.944;20.038;2023-12-20T23:51:47;96768.06;;;-21.29;96.18
15066;BME280;7632;64.944;20.038;2023-12-20T23:54:16;96786.94;;;-21.38;96.16
15066;BME280;7632;64.944;20.038;2023-12-20T23:56:42;96781.88;;;-21.64;95.92
15066;BME280;7632;64.944;20.038;2023-12-20T23:59:09;96774.50;;;-21.66;95.88
